Time;durP1;ratioP1;P1;durP2;ratioP2;P2;SDS_P1;SDS_P2;PMS_P1;PMS_P2;Temp;Humidity;BMP_temperature;BMP_pressure;BME280_temperature;BME280_humidity;BME280_pressure;Samples;Min_cycle;Max_cycle;Signal;HPM_P1;HPM_P2
2022/07/09 12:29:10;;;;;;;11.63;7.18;;;27.40;99.90;;;;;;5380108;23;20084;-90
2022/07/09 12:31:40;;;;;;;8.63;5.95;;;27.10;99.90;;;;;;4866124;29;20031;-91
2022/07/09 14:06:28;;;;;;;11.73;6.53;;;27.90;99.90;;;;;;5134739;23;20071;-94
2022/07/09 14:08:55;;;;;;;7.38;6.68;;;27.90;99.90;;;;;;4963849;28;20027;-94
2022/07/09 14:11:21;;;;;;;8.90;6.70;;;27.80;99.90;;;;;;4942235;29;20033;-91
2022/07/09 14:13:49;;;;;;;9.45;6.78;;;28.00;99.90;;;;;;4942496;29;20585;-94
2022/07/09 14:16:16;;;;;;;8.23;5.93;;;27.80;99.90;;;;;;4945525;29;20027;-93
2022/07/09 14:18:43;;;;;;;10.77;5.80;;;27.70;99.90;;;;;;4942826;29;20024;-94
2022/07/09 14:21:10;;;;;;;7.15;5.63;;;27.60;99.90;;;;;;4926100;29;20099;-93
2022/07/09 14:23:37;;;;;;;10.02;6.32;;;27.80;99.90;;;;;;4941912;29;20024;-94
2022/07/09 14:26:04;;;;;;;7.80;6.75;;;27.50;99.90;;;;;;4925880;29;20035;-94
2022/07/09 14:28:31;;;;;;;8.50;6.40;;;27.20;99.90;;;;;;4944523;29;20031;-94
2022/07/09 14:30:57;;;;;;;10.88;7.07;;;27.10;99.90;;;;;;4929208;29;20110;-94
2022/07/09 14:33:24;;;;;;;9.13;6.55;;;27.10;99.90;;;;;;4957671;29;20039;-94
2022/07/09 14:35:51;;;;;;;7.82;6.22;;;27.40;99.90;;;;;;4941795;29;20492;-94
2022/07/09 14:38:17;;;;;;;8.60;7.10;;;27.50;99.90;;;;;;4925838;29;20106;-94
2022/07/09 14:40:44;;;;;;;8.23;6.85;;;27.70;99.90;;;;;;4942110;29;20054;-94
2022/07/09 14:43:12;;;;;;;10.75;6.30;;;27.50;99.90;;;;;;4926045;29;20024;-95
2022/07/09 14:45:39;;;;;;;9.45;6.10;;;27.50;99.90;;;;;;4942307;29;20044;-92
2022/07/09 14:48:07;;;;;;;8.80;6.28;;;27.20;99.90;;;;;;4925907;29;20045;-94
2022/07/09 14:50:35;;;;;;;8.02;5.68;;;27.10;99.90;;;;;;4941405;29;20082;-95
2022/07/09 14:53:02;;;;;;;9.00;5.60;;;27.20;99.90;;;;;;4925651;29;20031;-93
2022/07/09 14:55:29;;;;;;;7.70;5.18;;;27.30;99.90;;;;;;4940889;29;20024;-94
2022/07/09 14:57:56;;;;;;;7.10;5.05;;;27.40;99.90;;;;;;4925694;29;20023;-93
2022/07/09 15:00:23;;;;;;;8.35;4.88;;;27.70;99.90;;;;;;4941383;29;20036;-93
2022/07/09 15:02:50;;;;;;;5.97;5.40;;;27.30;99.90;;;;;;4924518;28;20115;-93
2022/07/09 15:05:17;;;;;;;10.65;5.93;;;27.20;99.90;;;;;;4938648;29;20062;-95
2022/07/09 15:07:44;;;;;;;8.25;5.82;;;26.90;99.90;;;;;;4922446;29;20035;-95
2022/07/09 15:10:11;;;;;;;7.68;5.93;;;26.80;99.90;;;;;;4921482;29;20031;-93
2022/07/09 15:12:38;;;;;;;8.13;5.20;;;26.70;99.90;;;;;;4921639;29;20047;-92
2022/07/09 15:15:06;;;;;;;7.18;5.50;;;26.60;99.90;;;;;;4905740;29;20054;-92
2022/07/09 15:17:32;;;;;;;7.70;5.47;;;26.50;99.90;;;;;;4937301;29;20397;-92
2022/07/09 15:19:59;;;;;;;8.25;4.82;;;26.40;99.90;;;;;;4908747;29;20036;-93
2022/07/09 15:22:26;;;;;;;7.75;4.80;;;26.60;99.90;;;;;;4922769;29;20036;-93
2022/07/09 15:24:52;;;;;;;5.47;4.30;;;26.70;99.90;;;;;;4921702;29;20031;-92
2022/07/09 15:27:19;;;;;;;8.82;5.18;;;26.60;99.90;;;;;;4921515;29;20034;-92
2022/07/09 15:29:46;;;;;;;6.82;4.60;;;26.60;99.90;;;;;;4921802;29;20519;-93
2022/07/09 15:32:14;;;;;;;7.38;4.25;;;26.70;99.90;;;;;;4926833;29;20051;-92
2022/07/09 15:34:44;;;;;;;10.65;5.03;;;26.70;99.90;;;;;;4927002;29;20031;-93
2022/07/09 15:37:12;;;;;;;7.80;4.38;;;26.60;99.90;;;;;;4939788;29;20040;-92
2022/07/09 15:39:38;;;;;;;7.38;4.70;;;26.50;99.90;;;;;;4921049;29;20030;-93
2022/07/09 15:42:05;;;;;;;7.57;3.97;;;26.70;99.90;;;;;;4937171;29;20114;-92
2022/07/09 15:44:35;;;;;;;7.15;4.20;;;26.60;99.90;;;;;;4921080;29;20500;-92
2022/07/09 15:47:02;;;;;;;7.75;3.83;;;26.50;99.90;;;;;;4921214;29;20039;-92
2022/07/09 15:49:31;;;;;;;5.70;4.22;;;26.50;99.90;;;;;;4920776;29;20019;-92
2022/07/09 15:52:07;;;;;;;9.43;4.32;;;26.60;99.90;;;;;;4920878;29;20040;-92
2022/07/09 15:54:34;;;;;;;6.45;3.60;;;26.50;99.90;;;;;;4920580;29;20119;-93
2022/07/09 15:57:01;;;;;;;6.88;4.10;;;26.50;99.90;;;;;;4921672;29;20129;-92
2022/07/09 15:59:27;;;;;;;4.93;4.28;;;26.40;99.90;;;;;;4920714;29;20034;-92
2022/07/09 16:01:54;;;;;;;7.65;4.18;;;26.30;99.90;;;;;;4936582;29;20443;-90
2022/07/09 16:04:21;;;;;;;5.53;4.10;;;26.20;99.90;;;;;;4922159;29;20036;-93
2022/07/09 16:06:48;;;;;;;6.70;3.92;;;26.40;99.90;;;;;;4937098;29;20070;-92
2022/07/09 16:09:18;;;;;;;6.55;4.10;;;26.30;99.90;;;;;;4939315;29;20034;-93
2022/07/09 16:14:31;;;;;;;7.13;3.63;;;26.00;99.90;;;;;;4955413;28;20070;-91
2022/07/09 16:16:58;;;;;;;7.15;3.65;;;25.90;99.90;;;;;;4939457;29;20035;-92
2022/07/09 16:19:25;;;;;;;5.60;3.78;;;25.80;99.90;;;;;;4923578;29;20031;-92
2022/07/09 16:21:51;;;;;;;8.30;4.50;;;25.90;99.90;;;;;;4939271;29;20069;-92
2022/07/09 16:24:18;;;;;;;6.50;4.10;;;25.80;99.90;;;;;;4923482;29;20019;-91
2022/07/09 16:26:45;;;;;;;8.27;3.58;;;25.80;99.90;;;;;;4939236;29;20035;-91
2022/07/09 16:29:11;;;;;;;7.88;3.90;;;25.70;99.90;;;;;;4923507;29;20078;-93
2022/07/09 16:31:39;;;;;;;14.05;4.78;;;25.70;99.90;;;;;;4923280;29;20038;-92
2022/07/09 16:34:06;;;;;;;6.07;3.55;;;25.90;99.90;;;;;;4955620;28;20591;-92
2022/07/09 16:36:33;;;;;;;9.93;3.80;;;26.00;99.90;;;;;;4923387;29;20024;-93
2022/07/09 16:39:00;;;;;;;7.40;3.72;;;26.10;99.90;;;;;;4939491;29;20497;-93
2022/07/09 16:41:27;;;;;;;8.70;3.60;;;26.10;99.90;;;;;;4923337;29;20078;-93
2022/07/09 16:43:54;;;;;;;8.50;3.97;;;25.90;99.90;;;;;;4939047;29;20035;-93
2022/07/09 16:46:20;;;;;;;9.88;4.05;;;25.60;99.90;;;;;;4923241;29;20078;-91
2022/07/09 16:48:49;;;;;;;7.85;4.45;;;25.50;99.90;;;;;;4956546;29;20440;-91
2022/07/09 16:51:16;;;;;;;9.73;3.88;;;25.50;99.90;;;;;;4956045;29;20028;-92
2022/07/09 16:53:43;;;;;;;8.18;3.33;;;25.50;99.90;;;;;;4938820;29;20039;-93
2022/07/09 16:56:11;;;;;;;9.90;4.00;;;25.40;99.90;;;;;;4923181;29;20047;-95
2022/07/09 16:58:38;;;;;;;9.52;3.92;;;25.40;99.90;;;;;;4939300;29;20058;-91
2022/07/09 17:01:05;;;;;;;6.95;4.03;;;25.40;99.90;;;;;;4939117;29;20485;-92
2022/07/09 17:03:31;;;;;;;7.30;3.63;;;25.30;99.90;;;;;;4938976;29;20395;-93
2022/07/09 17:05:58;;;;;;;6.85;3.30;;;25.30;99.90;;;;;;4922930;29;20054;-92
2022/07/09 17:08:25;;;;;;;11.25;4.07;;;25.30;99.90;;;;;;4955013;29;20046;-93
2022/07/09 17:10:52;;;;;;;6.47;3.65;;;25.20;99.90;;;;;;4938874;29;20031;-91
2022/07/09 17:13:18;;;;;;;9.18;4.18;;;25.20;99.90;;;;;;4938789;29;20030;-92
2022/07/09 17:15:44;;;;;;;5.25;3.90;;;25.20;99.90;;;;;;4939694;29;20465;-90
2022/07/09 17:18:12;;;;;;;6.13;3.40;;;25.10;99.90;;;;;;4955439;29;20035;-94
2022/07/09 17:20:38;;;;;;;10.20;3.50;;;25.10;99.90;;;;;;4938644;29;20043;-91
2022/07/09 17:23:05;;;;;;;13.13;3.67;;;25.10;99.90;;;;;;4939287;29;20091;-93
2022/07/09 17:25:32;;;;;;;5.22;3.25;;;24.90;99.90;;;;;;4923962;28;20459;-92
2022/07/09 17:27:58;;;;;;;5.50;3.40;;;24.90;99.90;;;;;;4941631;29;20031;-91
2022/07/09 17:30:25;;;;;;;11.55;4.88;;;24.90;99.90;;;;;;4926464;29;20066;-91
2022/07/09 17:32:56;;;;;;;8.20;3.97;;;24.90;99.90;;;;;;4928199;29;20035;-92
2022/07/09 17:35:24;;;;;;;9.10;3.22;;;24.80;99.90;;;;;;4942269;28;20023;-91
2022/07/09 17:37:53;;;;;;;9.75;2.80;;;24.80;99.90;;;;;;4926958;29;20055;-92
2022/07/09 17:40:21;;;;;;;6.80;3.20;;;24.80;99.90;;;;;;4925914;29;20166;-93
2022/07/09 17:42:48;;;;;;;10.70;4.10;;;24.70;99.90;;;;;;4926042;29;20118;-92
2022/07/09 17:45:15;;;;;;;8.23;3.80;;;24.60;99.90;;;;;;4925976;29;20043;-92
2022/07/09 17:47:44;;;;;;;7.57;3.38;;;24.50;99.90;;;;;;4941780;29;20118;-92
2022/07/09 17:50:12;;;;;;;12.05;3.92;;;24.50;99.90;;;;;;4941841;29;20044;-92
2022/07/09 17:52:41;;;;;;;11.15;3.65;;;24.40;99.90;;;;;;4926232;29;20480;-93
2022/07/09 17:55:23;;;;;;;8.57;3.10;;;24.40;99.90;;;;;;4937451;29;20095;-93
2022/07/09 17:57:54;;;;;;;7.50;2.92;;;24.40;99.90;;;;;;4907302;29;20031;-90
2022/07/09 18:00:24;;;;;;;4.75;2.70;;;24.30;99.90;;;;;;4919489;29;20040;-90
2022/07/09 18:02:51;;;;;;;12.73;3.85;;;24.30;99.90;;;;;;4914747;29;20063;-90
2022/07/09 18:05:18;;;;;;;7.72;3.05;;;24.40;99.90;;;;;;4925726;29;20054;-91
2022/07/09 18:07:45;;;;;;;9.68;3.28;;;24.40;99.90;;;;;;4939049;29;20040;-91
2022/07/09 18:10:13;;;;;;;10.57;3.00;;;24.30;99.90;;;;;;4922646;29;20028;-92
2022/07/09 18:12:40;;;;;;;6.72;2.70;;;24.30;99.90;;;;;;4916754;29;20122;-90
2022/07/09 18:15:08;;;;;;;10.35;3.10;;;24.20;99.90;;;;;;4920903;29;20023;-90
2022/07/09 18:17:36;;;;;;;10.02;3.35;;;24.20;99.90;;;;;;4925727;29;20031;-91
2022/07/09 18:20:05;;;;;;;7.47;2.80;;;24.20;99.90;;;;;;4917472;29;20036;-91
2022/07/09 18:22:34;;;;;;;11.07;3.72;;;24.10;99.90;;;;;;4925433;29;20131;-91
2022/07/09 18:25:01;;;;;;;9.75;3.13;;;24.10;99.90;;;;;;4909188;29;20106;-89
2022/07/09 18:27:29;;;;;;;12.48;3.25;;;24.00;99.90;;;;;;4923516;29;20035;-93
2022/07/09 18:29:55;;;;;;;10.05;2.97;;;24.00;99.90;;;;;;4917598;29;20095;-92
2022/07/09 18:32:21;;;;;;;7.97;3.05;;;24.00;99.90;;;;;;4906541;29;20035;-91
2022/07/09 18:34:48;;;;;;;9.32;2.65;;;24.00;99.90;;;;;;4912760;29;20050;-91
2022/07/09 18:37:14;;;;;;;11.77;3.83;;;23.90;99.90;;;;;;4925299;28;20035;-91
2022/07/09 18:39:45;;;;;;;13.25;3.72;;;23.90;99.90;;;;;;4913956;29;20126;-90
2022/07/09 18:42:11;;;;;;;7.63;2.75;;;23.90;99.90;;;;;;4906268;29;20537;-89
2022/07/09 18:44:38;;;;;;;9.60;3.15;;;23.80;99.90;;;;;;4911053;29;20031;-88
2022/07/09 18:47:08;;;;;;;9.38;3.40;;;23.80;99.90;;;;;;4906024;29;20059;-90
2022/07/09 18:49:36;;;;;;;14.88;3.63;;;23.80;99.90;;;;;;4906098;29;20031;-91
2022/07/09 18:52:04;;;;;;;9.85;3.10;;;23.80;99.90;;;;;;4925724;29;20078;-89
2022/07/09 18:54:32;;;;;;;9.13;2.72;;;23.80;99.90;;;;;;4925600;29;20031;-91
2022/07/09 18:56:58;;;;;;;12.88;3.60;;;23.80;99.90;;;;;;4911780;29;20031;-90
2022/07/09 18:59:25;;;;;;;12.88;3.10;;;23.80;99.90;;;;;;4910959;29;20485;-90
2022/07/09 19:01:51;;;;;;;7.05;2.92;;;23.80;99.90;;;;;;4905573;29;20043;-91
2022/07/09 19:04:19;;;;;;;9.98;3.20;;;23.70;99.90;;;;;;4926897;29;20032;-92
2022/07/09 19:06:45;;;;;;;8.82;3.15;;;23.70;99.90;;;;;;4902318;29;20055;-90
2022/07/09 19:09:12;;;;;;;9.98;3.38;;;23.70;99.90;;;;;;4918259;29;20063;-91
2022/07/09 19:11:43;;;;;;;9.88;3.63;;;23.70;99.90;;;;;;4887008;29;20032;-90
2022/07/09 19:14:10;;;;;;;9.15;3.28;;;23.70;99.90;;;;;;4924135;29;20497;-90
2022/07/09 19:16:37;;;;;;;9.13;3.55;;;23.70;99.90;;;;;;4902144;29;20040;-89
2022/07/09 19:19:05;;;;;;;8.52;2.95;;;23.70;99.90;;;;;;4886677;29;20115;-88
2022/07/09 19:21:32;;;;;;;8.40;2.80;;;23.70;99.90;;;;;;4917986;29;20091;-91
2022/07/09 19:23:59;;;;;;;10.18;3.10;;;23.70;99.90;;;;;;4902037;29;20032;-89
2022/07/09 19:26:26;;;;;;;16.52;3.17;;;23.60;99.90;;;;;;4918265;29;20032;-88
2022/07/09 19:28:53;;;;;;;9.40;3.03;;;23.60;99.90;;;;;;4886587;29;20035;-89
2022/07/09 19:34:07;;;;;;;13.55;3.35;;;23.60;99.90;;;;;;4901987;29;20063;-91
2022/07/09 19:36:38;;;;;;;10.93;3.10;;;23.60;99.90;;;;;;4886405;29;20493;-90
2022/07/09 19:39:06;;;;;;;6.80;3.17;;;23.60;99.90;;;;;;4901963;29;20039;-90
2022/07/09 19:41:37;;;;;;;10.82;3.42;;;23.60;99.90;;;;;;4886267;29;20510;-89
2022/07/09 19:44:08;;;;;;;8.68;3.30;;;23.60;99.90;;;;;;4918110;29;20059;-91
2022/07/09 19:46:36;;;;;;;11.95;4.10;;;23.60;99.90;;;;;;4917644;29;20035;-91
2022/07/09 19:49:04;;;;;;;8.52;3.05;;;23.60;99.90;;;;;;4917404;29;20024;-90
2022/07/09 19:51:32;;;;;;;14.85;3.78;;;23.60;99.90;;;;;;4917200;29;20028;-91
2022/07/09 19:53:58;;;;;;;13.45;3.95;;;23.60;99.90;;;;;;4917394;29;20032;-88
2022/07/09 19:56:25;;;;;;;9.90;3.13;;;23.60;99.90;;;;;;4901587;29;20043;-87
2022/07/09 19:58:52;;;;;;;11.05;3.03;;;23.60;99.90;;;;;;4902015;29;20071;-87
2022/07/09 20:01:19;;;;;;;9.38;3.42;;;23.50;99.90;;;;;;4917146;29;20032;-88
2022/07/09 20:03:46;;;;;;;11.43;3.20;;;23.50;99.90;;;;;;4886086;29;20028;-89
2022/07/09 20:06:13;;;;;;;8.00;2.50;;;23.50;99.90;;;;;;4912634;29;20075;-88
2022/07/09 20:08:40;;;;;;;13.82;2.97;;;23.50;99.90;;;;;;4936148;29;20430;-88
2022/07/09 20:11:07;;;;;;;14.18;3.10;;;23.50;99.90;;;;;;4920258;29;20142;-88
2022/07/09 20:13:33;;;;;;;10.25;2.97;;;23.50;99.90;;;;;;4920972;29;20034;-88
2022/07/09 20:16:00;;;;;;;6.68;2.40;;;23.50;99.90;;;;;;4937455;29;20032;-89
2022/07/09 20:18:27;;;;;;;11.00;2.78;;;23.60;99.90;;;;;;4920287;29;20028;-88
2022/07/09 20:20:53;;;;;;;9.18;3.15;;;23.50;99.90;;;;;;4921156;29;20048;-88
2022/07/09 20:23:20;;;;;;;12.13;2.90;;;23.50;99.90;;;;;;4936172;29;20028;-88
2022/07/09 20:25:47;;;;;;;7.18;2.90;;;23.50;99.90;;;;;;4936203;29;20078;-88
2022/07/09 20:28:14;;;;;;;10.85;2.95;;;23.50;99.90;;;;;;4920538;29;20051;-87
2022/07/09 20:30:41;;;;;;;5.90;2.63;;;23.50;99.90;;;;;;4920391;29;20024;-90
2022/07/09 20:33:07;;;;;;;7.63;2.60;;;23.50;99.90;;;;;;4904694;29;20039;-89
2022/07/09 20:35:35;;;;;;;13.43;3.25;;;23.50;99.90;;;;;;4936437;29;20035;-89
2022/07/09 20:38:03;;;;;;;9.45;3.08;;;23.50;99.90;;;;;;4920263;29;20036;-89
2022/07/09 20:40:30;;;;;;;11.70;3.00;;;23.50;99.90;;;;;;4922262;29;20036;-89
2022/07/09 20:42:56;;;;;;;12.60;3.40;;;23.50;99.90;;;;;;4927151;29;20135;-88
2022/07/09 20:45:25;;;;;;;11.10;2.45;;;23.50;99.90;;;;;;4921959;29;20028;-88
2022/07/09 20:47:51;;;;;;;13.70;3.63;;;23.50;99.90;;;;;;4935847;29;20036;-88
2022/07/09 20:50:18;;;;;;;8.27;3.20;;;23.50;99.90;;;;;;4920104;29;20047;-88
2022/07/09 20:52:48;;;;;;;14.52;3.72;;;23.50;99.90;;;;;;4919995;29;20083;-89
2022/07/09 20:55:14;;;;;;;8.50;2.63;;;23.50;99.90;;;;;;4935788;29;20028;-90
2022/07/09 20:57:42;;;;;;;6.97;2.65;;;23.50;99.90;;;;;;4920424;29;20031;-87
2022/07/09 21:00:09;;;;;;;7.30;2.63;;;23.50;99.90;;;;;;4920512;29;20036;-87
2022/07/09 21:02:36;;;;;;;10.85;3.08;;;23.50;99.90;;;;;;4921928;29;20032;-88
2022/07/09 21:05:04;;;;;;;10.43;2.75;;;23.50;99.90;;;;;;4923635;29;20083;-89
2022/07/09 21:07:31;;;;;;;8.43;2.80;;;23.50;99.90;;;;;;4908034;29;20044;-89
2022/07/09 21:09:58;;;;;;;11.45;3.40;;;23.50;99.90;;;;;;4907750;29;20115;-92
2022/07/09 21:12:26;;;;;;;10.02;2.80;;;23.50;99.90;;;;;;4907677;29;20023;-89
2022/07/09 21:14:53;;;;;;;11.13;2.92;;;23.50;99.90;;;;;;4907543;29;20505;-88
2022/07/09 21:20:06;;;;;;;6.35;2.40;;;23.60;99.90;;;;;;4939115;29;20489;-89
2022/07/09 21:22:33;;;;;;;10.75;2.90;;;23.60;99.90;;;;;;4907558;29;20078;-90
2022/07/09 21:25:00;;;;;;;10.75;2.72;;;23.60;99.90;;;;;;4923376;29;20028;-89
2022/07/09 21:27:26;;;;;;;8.95;2.90;;;23.50;99.90;;;;;;4907405;29;20027;-90
2022/07/09 21:29:53;;;;;;;13.65;2.95;;;23.50;99.90;;;;;;4923075;29;20413;-88
2022/07/09 21:32:20;;;;;;;5.18;2.47;;;23.50;99.90;;;;;;4907474;29;20028;-89
2022/07/09 21:34:47;;;;;;;7.60;2.65;;;23.40;99.90;;;;;;4907738;29;20047;-90
2022/07/09 21:37:15;;;;;;;14.07;2.88;;;23.50;99.90;;;;;;4907383;29;20035;-90
2022/07/09 21:39:42;;;;;;;8.85;2.83;;;23.40;99.90;;;;;;4907163;29;20110;-91
2022/07/09 21:42:09;;;;;;;11.48;2.80;;;23.40;99.90;;;;;;4907474;29;20027;-91
2022/07/09 21:44:36;;;;;;;15.10;2.95;;;23.30;99.90;;;;;;4923150;29;20400;-89
2022/07/09 21:47:03;;;;;;;9.57;2.65;;;23.40;99.90;;;;;;4907400;29;20556;-89
2022/07/09 21:49:30;;;;;;;11.98;2.67;;;23.30;99.90;;;;;;4907605;29;20027;-90
2022/07/09 21:51:56;;;;;;;11.15;3.03;;;23.30;99.90;;;;;;4907099;29;20481;-89
2022/07/09 21:54:23;;;;;;;10.48;2.45;;;23.30;99.90;;;;;;4906996;29;20032;-88
2022/07/09 21:56:51;;;;;;;16.48;3.03;;;23.30;99.90;;;;;;4907024;29;20115;-88
2022/07/09 21:59:17;;;;;;;9.55;3.08;;;23.30;99.90;;;;;;4906894;29;20033;-90
2022/07/09 22:01:43;;;;;;;10.18;2.85;;;23.30;99.90;;;;;;4922598;29;20036;-89
2022/07/09 22:04:15;;;;;;;13.82;2.90;;;23.30;99.90;;;;;;4907123;29;20111;-89
2022/07/09 22:06:42;;;;;;;17.65;3.55;;;23.20;99.90;;;;;;4906702;29;20581;-90
2022/07/09 22:09:08;;;;;;;15.50;3.13;;;23.20;99.90;;;;;;4906574;29;20032;-89
2022/07/09 22:11:35;;;;;;;15.40;4.25;;;23.20;99.90;;;;;;4906738;29;20028;-88
2022/07/09 22:14:18;;;;;;;12.77;3.17;;;23.10;99.90;;;;;;4906446;29;20144;-88
2022/07/09 22:16:45;;;;;;;14.48;3.15;;;23.10;99.90;;;;;;4922299;29;20137;-89
2022/07/09 22:19:12;;;;;;;13.27;3.42;;;23.10;99.90;;;;;;4906491;29;20043;-90
2022/07/09 22:21:39;;;;;;;14.52;3.08;;;23.00;99.90;;;;;;4906540;29;20480;-87
2022/07/09 22:24:05;;;;;;;13.95;3.00;;;23.10;99.90;;;;;;4906653;29;20032;-88
2022/07/09 22:26:32;;;;;;;13.75;2.95;;;23.00;99.90;;;;;;4906487;29;20095;-88
2022/07/09 22:28:59;;;;;;;14.18;3.63;;;23.00;99.90;;;;;;4906250;29;20047;-89
2022/07/09 22:31:26;;;;;;;13.60;3.60;;;23.00;99.90;;;;;;4906619;29;20032;-88
2022/07/09 22:33:53;;;;;;;16.80;3.20;;;23.00;99.90;;;;;;4907086;29;20020;-90
2022/07/09 22:36:19;;;;;;;14.23;3.65;;;23.00;99.90;;;;;;4906369;29;20035;-88
2022/07/09 22:38:46;;;;;;;9.45;3.47;;;23.00;99.90;;;;;;4906229;29;20110;-90
2022/07/09 22:41:15;;;;;;;11.82;3.38;;;22.90;99.90;;;;;;4906201;29;20039;-87
2022/07/09 22:43:41;;;;;;;16.45;2.83;;;22.90;99.90;;;;;;4906212;29;20032;-89
2022/07/09 22:46:08;;;;;;;15.90;3.55;;;22.90;99.90;;;;;;4906144;29;20503;-88
2022/07/09 22:48:34;;;;;;;15.35;3.40;;;22.80;99.90;;;;;;4905936;29;20059;-88
2022/07/09 22:51:04;;;;;;;11.13;3.33;;;22.80;99.90;;;;;;4905845;29;20043;-88
2022/07/09 22:53:31;;;;;;;9.63;3.08;;;22.80;99.90;;;;;;4921651;29;20032;-87
2022/07/09 22:55:58;;;;;;;9.05;3.10;;;22.70;99.90;;;;;;4906588;29;20114;-89
2022/07/09 22:58:25;;;;;;;12.63;3.75;;;22.70;99.90;;;;;;4921467;29;20405;-88
2022/07/09 23:00:51;;;;;;;13.02;3.38;;;22.60;99.90;;;;;;4905827;29;20035;-89
2022/07/09 23:03:17;;;;;;;11.63;2.97;;;22.60;99.90;;;;;;4921504;29;20032;-89
2022/07/09 23:05:44;;;;;;;9.75;3.03;;;22.60;99.90;;;;;;4905768;29;20087;-88
2022/07/09 23:11:04;;;;;;;9.25;3.45;;;22.60;99.90;;;;;;4892863;29;20040;-88
2022/07/09 23:13:31;;;;;;;9.68;2.78;;;22.50;99.90;;;;;;4905503;29;20070;-91
2022/07/09 23:16:00;;;;;;;11.02;3.20;;;22.50;99.90;;;;;;4905975;29;20024;-90
2022/07/09 23:18:27;;;;;;;9.43;3.40;;;22.50;99.90;;;;;;4920879;29;20032;-89
2022/07/09 23:20:54;;;;;;;6.18;3.15;;;22.40;99.90;;;;;;4905491;29;20071;-90
2022/07/09 23:23:20;;;;;;;12.13;3.17;;;22.50;99.90;;;;;;4905631;29;20111;-88
2022/07/09 23:25:48;;;;;;;10.50;3.30;;;22.50;99.90;;;;;;4904762;29;20024;-88
2022/07/09 23:28:14;;;;;;;10.95;3.45;;;22.50;99.90;;;;;;4905311;29;20028;-90
2022/07/09 23:30:41;;;;;;;9.07;3.15;;;22.50;99.90;;;;;;4905406;29;20098;-89
2022/07/09 23:33:07;;;;;;;12.55;4.35;;;22.50;99.90;;;;;;4905428;29;20083;-89
2022/07/09 23:35:35;;;;;;;8.18;3.60;;;22.50;99.90;;;;;;4905112;29;20429;-89
2022/07/09 23:38:01;;;;;;;15.68;4.10;;;22.50;99.90;;;;;;4905190;29;20028;-90
2022/07/09 23:40:28;;;;;;;10.50;3.35;;;22.50;99.90;;;;;;4920630;29;20146;-89
2022/07/09 23:42:56;;;;;;;7.35;3.58;;;22.50;99.90;;;;;;4905193;29;20110;-89
2022/07/09 23:45:22;;;;;;;5.10;3.22;;;22.40;99.90;;;;;;4920747;29;20086;-88
2022/07/09 23:47:49;;;;;;;7.45;3.20;;;22.40;99.90;;;;;;4904990;29;20028;-90
2022/07/09 23:50:16;;;;;;;9.38;3.70;;;22.40;99.90;;;;;;4904904;29;20096;-89
2022/07/09 23:52:43;;;;;;;3.83;3.10;;;22.40;99.90;;;;;;4904842;29;20114;-88
2022/07/09 23:55:10;;;;;;;8.18;3.42;;;22.40;99.90;;;;;;4904958;29;20485;-90
2022/07/09 23:57:40;;;;;;;7.80;3.30;;;22.40;99.90;;;;;;4904670;29;20042;-90
